Punta Gorda, FL

10:06 AM EDT on August 21, 2014 (GMT -0400)
Charlotte County | Change Station
CLOSE
Current Station
Airport
Location: Punta Gorda,
Elevation: 26 ft
Nearby Weather Stations

Elev 26 ft 26.92 °N, 81.99 °W | Updated 13 minutes ago

Clear
Clear
86 °F
Feels Like 97 °F
N
5
Wind Variable Wind from Variable

Today
High -- | Low -- °F
--% Chance of Precip.
Yesterday
High -- | Low -- °F
Precip. -- in
7:02 AM 7:59 PM
Waning Crescent, 14% visible
Pressure 30.14 in
Visibility 10.0 miles
Clouds Clear
Heat Index 97 °F
Dew Point 77 °F
Humidity 74%
Rainfall 0.00 in
Snow Depth Not available.
UV 5 out of 12
Pollen 4.50 out of 12
Air Quality Not available.
Flu Activity Not available.
METAR KPGD 211353Z VRB04KT 10SM CLR 30/25 A3014 RMK AO2 SLP207 T03000250

More Conditions Fewer Conditions

Pressure 30.14 in
Visibility 10.0 miles
Clouds Clear
Heat Index 97 °F
Dew Point 77 °F
Humidity 74%
Rainfall 0.00 in
Snow Depth Not available.
UV 5 out of 12
Pollen 4.50 out of 12
Air Quality Not available.
Flu Activity Not available.
METAR KPGD 211353Z VRB04KT 10SM CLR 30/25 A3014 RMK AO2 SLP207 T03000250

More Conditions Fewer Conditions

10-Day Weather Forecast

Almanac

Astronomy

Aug. 21, 2014 Rise Set
Actual Time 7:02 AM EDT 7:59 PM EDT
Civil Twilight 6:38 AM EDT 8:23 PM EDT
Nautical Twilight 6:09 AM EDT 8:51 PM EDT
Astronomical Twilight 5:40 AM EDT 9:20 PM EDT
Moon 3:40 AM EDT 5:19 PM EDT
Length of Visible Light 13h 45m
Length of Day
12h 56m
Tomorrow will be 1m 28s shorter.
Waning Crescent, 14% of the Moon is Illuminated
Today
Waning Crescent
Aug 25
New
Sep 2
First Quarter
Sep 8
Full
Sep 15
Last Quarter

Today's Extremes

State Highs State Lows

Community

WunderPhotos

Upload Photos

1,745,925 photos uploaded!

WunderBlogs® & News

Nearby

Snow Depth

Station Depth Elevation
No new snow has been reported.

Earthquake Activity

City Distance Mag. Time & Date
No recent earthquake activity has been reported nearby.
Minimum magnitude displayed is 2.5.

Coastal Water Temperatures

Place Temperature
No Stations Reporting

Nearby Weather Stations